Carrara, Queensland

1:45 PM EST on August 31, 2014 (GMT +1000)
Worongary | Change Station
CLOSE
Current Station
Personal Weather Station
Location: Worongary, QUEENSLAND
Elevation: 121 ft
Nearby Weather Stations

Elev 121 ft 28.06 °S, 153.35 °E | Updated 7 minutes ago

Clear
Clear
70.0 °F
Feels Like 70.0 °F
N
3.8
Wind Variable Wind from East
Gusts 6.0 mph

Today
High -- | Low -- °F
--% Chance of Precip.
Yesterday
High -- | Low -- °F
Precip. -- in
6:02 AM 5:32 PM
Waxing Crescent, 27% visible
Pressure 30.01 in
Visibility 6.2 miles
Clouds
Dew Point 56 °F
Humidity 61%
Rainfall 0.00 in
Snow Depth Not available.
UV 0.0 out of 12
Pollen Not available.
Air Quality Not available.
Flu Activity Not available.
METAR YBCG 310330Z AUTO 13015KT 9999 // NCD 23/13 Q1016

More Conditions Fewer Conditions

Pressure 30.01 in
Visibility 6.2 miles
Clouds
Dew Point 56 °F
Humidity 61%
Rainfall 0.00 in
Snow Depth Not available.
UV 0.0 out of 12
Pollen Not available.
Air Quality Not available.
Flu Activity Not available.
METAR YBCG 310330Z AUTO 13015KT 9999 // NCD 23/13 Q1016

More Conditions Fewer Conditions

10-Day Weather Forecast

Almanac

Astronomy

Aug. 31, 2014 Rise Set
Actual Time 6:02 AM EST 5:32 PM EST
Civil Twilight 5:38 AM EST 5:55 PM EST
Nautical Twilight 5:11 AM EST 6:23 PM EST
Astronomical Twilight 4:44 AM EST 6:50 PM EST
Moon 9:06 AM EST 10:29 PM EST
Length of Visible Light 12h 17m
Length of Day
11h 30m
Tomorrow will be 1m 33s longer.
Waxing Crescent, 27% of the Moon is Illuminated
Aug 30
Waxing Crescent
Sep 2
First Quarter
Sep 8
Full
Sep 15
Last Quarter
Sep 24
New

Yesterday's Extremes

Country Highs Country Lows

Community

WunderPhotos

Upload Photos

1,748,773 photos uploaded!

Nearby

Snow Depth

Not available.

Earthquake Activity

City Distance Mag. Time & Date
No recent earthquake activity has been reported nearby.
Minimum magnitude displayed is 2.5.

Coastal Water Temperatures

Place Temperature
No Stations Reporting

Nearby Weather Stations